Time;durP1;ratioP1;P1;durP2;ratioP2;P2;SDS_P1;SDS_P2;PMS_P1;PMS_P2;Temp;Humidity;BMP_temperature;BMP_pressure;BME280_temperature;BME280_humidity;BME280_pressure;Samples;Min_cycle;Max_cycle;Signal;HPM_P1;HPM_P2
2021/12/21 00:02:04;;;;;;;6.72;4.30;;;5.50;90.70;;;;;;1952961;73;21184;-46
2021/12/21 00:04:34;;;;;;;6.95;4.40;;;5.50;90.80;;;;;;1953112;73;21052;-46
2021/12/21 00:07:05;;;;;;;7.75;5.75;;;5.50;90.80;;;;;;1952943;73;21020;-47
2021/12/21 00:09:34;;;;;;;11.50;6.35;;;5.50;90.80;;;;;;1953046;73;21023;-47
2021/12/21 00:12:03;;;;;;;9.93;6.05;;;5.50;90.80;;;;;;1953077;73;21066;-47
2021/12/21 00:14:57;;;;;;;6.83;4.67;;;5.50;90.80;;;;;;1953055;73;20984;-48
2021/12/21 00:17:31;;;;;;;9.10;4.72;;;5.60;90.90;;;;;;1949524;73;21016;-46
2021/12/21 00:20:06;;;;;;;6.35;4.90;;;5.60;90.80;;;;;;1948294;73;21048;-47
2021/12/21 00:23:02;;;;;;;7.03;4.97;;;5.50;90.30;;;;;;1948680;73;21455;-47
2021/12/21 00:25:00;;;;;;;6.25;5.22;;;5.50;90.50;;;;;;1947617;73;21098;-47
2021/12/21 00:27:29;;;;;;;8.40;4.90;;;5.40;90.50;;;;;;1953080;73;21020;-47
2021/12/21 00:29:59;;;;;;;6.08;4.40;;;5.40;90.70;;;;;;1953023;73;21020;-48
2021/12/21 00:32:28;;;;;;;5.65;4.42;;;5.30;90.50;;;;;;1953080;73;21061;-46
2021/12/21 00:34:58;;;;;;;6.70;4.45;;;5.30;90.60;;;;;;1953224;73;21008;-47
2021/12/21 00:37:28;;;;;;;7.62;5.10;;;5.20;89.90;;;;;;1953071;73;21074;-47
2021/12/21 00:39:57;;;;;;;5.75;4.50;;;5.10;89.60;;;;;;1953130;73;21082;-47
2021/12/21 00:42:27;;;;;;;9.00;4.70;;;5.10;89.60;;;;;;1952991;73;21062;-47
2021/12/21 00:44:56;;;;;;;8.00;4.97;;;4.90;89.40;;;;;;1953010;73;21076;-47
2021/12/21 00:47:25;;;;;;;6.45;4.97;;;4.80;90.00;;;;;;1952944;73;21094;-47
2021/12/21 00:50:03;;;;;;;7.70;5.03;;;4.80;90.10;;;;;;1953154;73;21028;-49
2021/12/21 00:52:32;;;;;;;7.95;4.28;;;4.70;90.50;;;;;;1953121;73;21079;-47
2021/12/21 00:55:01;;;;;;;6.33;4.85;;;4.70;90.30;;;;;;1953062;73;21125;-46
2021/12/21 00:57:31;;;;;;;8.73;5.53;;;4.70;90.40;;;;;;1952980;73;21481;-47
2021/12/21 01:00:00;;;;;;;7.53;4.92;;;4.70;90.50;;;;;;1953113;73;21008;-46
2021/12/21 01:02:29;;;;;;;7.70;5.35;;;4.70;90.60;;;;;;1953049;73;21032;-47
2021/12/21 01:04:59;;;;;;;7.58;5.12;;;4.70;90.30;;;;;;1953033;73;21474;-48
2021/12/21 01:07:40;;;;;;;8.95;5.22;;;4.70;90.40;;;;;;1953049;73;21027;-49
2021/12/21 01:12:58;;;;;;;6.40;4.03;;;4.70;90.20;;;;;;1953140;73;21036;-47
2021/12/21 01:18:02;;;;;;;6.80;4.22;;;4.60;89.60;;;;;;1953016;73;21012;-48
2021/12/21 01:20:36;;;;;;;6.97;5.17;;;4.50;89.70;;;;;;1952089;73;20996;-48
2021/12/21 01:23:52;;;;;;;;;;;4.40;90.00;;;;;;1955112;73;21044;-47
2021/12/21 01:31:29;;;;;;;8.15;5.08;;;4.30;90.40;;;;;;1953168;73;21145;-47
2021/12/21 01:36:52;;;;;;;7.00;5.10;;;4.40;90.10;;;;;;1953083;73;21015;-47
2021/12/21 01:41:56;;;;;;;8.38;5.17;;;4.40;90.30;;;;;;1952939;73;21097;-47
2021/12/21 01:44:39;;;;;;;8.28;5.72;;;4.40;89.80;;;;;;1950993;73;21048;-47
2021/12/21 01:49:53;;;;;;;9.23;4.95;;;4.40;90.10;;;;;;1923404;73;21160;-46
2021/12/21 01:52:02;;;;;;;7.85;4.15;;;4.50;90.00;;;;;;1943918;73;21474;-47
2021/12/21 01:54:32;;;;;;;8.20;4.92;;;4.50;90.10;;;;;;1953015;73;21158;-47
2021/12/21 01:57:01;;;;;;;10.63;6.12;;;4.50;89.50;;;;;;1952996;73;21059;-47
2021/12/21 01:59:32;;;;;;;13.38;6.22;;;4.50;89.80;;;;;;1953083;73;21470;-47
2021/12/21 02:02:01;;;;;;;11.85;5.47;;;4.50;89.40;;;;;;1953070;73;21199;-48
2021/12/21 02:04:31;;;;;;;13.00;5.67;;;4.50;89.10;;;;;;1951350;73;21040;-46
2021/12/21 02:07:00;;;;;;;15.20;6.85;;;4.50;89.90;;;;;;1940197;74;21016;-47
2021/12/21 02:09:37;;;;;;;11.55;6.20;;;4.60;90.20;;;;;;1940170;74;21036;-47
2021/12/21 02:12:00;;;;;;;10.78;7.35;;;4.70;90.30;;;;;;1939293;74;21076;-46
2021/12/21 02:14:29;;;;;;;21.23;7.45;;;4.80;90.40;;;;;;1940247;74;20997;-48
2021/12/21 02:17:27;;;;;;;12.70;6.05;;;4.90;90.30;;;;;;1940251;74;21082;-47
2021/12/21 02:19:39;;;;;;;14.13;6.12;;;5.00;90.30;;;;;;1935745;74;21130;-47
2021/12/21 02:22:17;;;;;;;11.15;6.75;;;5.10;90.40;;;;;;1939006;74;21063;-47
2021/12/21 02:24:59;;;;;;;11.40;6.75;;;5.10;90.40;;;;;;1938059;74;21471;-46
2021/12/21 02:27:30;;;;;;;10.05;6.85;;;5.20;90.40;;;;;;1934478;74;21001;-47
2021/12/21 02:29:58;;;;;;;8.13;5.78;;;5.20;90.40;;;;;;1940307;73;21060;-47
2021/12/21 02:32:27;;;;;;;7.92;5.47;;;5.30;90.50;;;;;;1940189;74;21009;-47
2021/12/21 02:34:57;;;;;;;9.05;5.92;;;5.30;90.50;;;;;;1940225;73;21078;-47
2021/12/21 02:37:26;;;;;;;12.28;6.12;;;5.30;90.50;;;;;;1940190;74;21181;-47
2021/12/21 02:39:55;;;;;;;11.60;6.87;;;5.30;90.50;;;;;;1940274;74;21032;-46
2021/12/21 02:42:25;;;;;;;8.58;5.60;;;5.30;90.50;;;;;;1940276;74;21033;-47
2021/12/21 02:44:55;;;;;;;18.30;6.60;;;5.30;90.60;;;;;;1940268;74;21008;-48
2021/12/21 02:47:25;;;;;;;8.00;5.05;;;5.30;90.60;;;;;;1940105;73;21032;-47
2021/12/21 02:49:54;;;;;;;11.33;6.33;;;5.30;90.60;;;;;;1940151;74;21021;-48
2021/12/21 02:52:23;;;;;;;10.30;5.22;;;5.30;90.70;;;;;;1940176;74;21090;-47
2021/12/21 02:54:53;;;;;;;10.78;5.75;;;5.30;90.70;;;;;;1940198;74;21017;-47
2021/12/21 02:57:22;;;;;;;9.43;5.80;;;5.30;90.80;;;;;;1940167;74;21059;-48
2021/12/21 02:59:51;;;;;;;10.25;6.62;;;5.30;90.80;;;;;;1940195;74;21056;-47
2021/12/21 03:02:21;;;;;;;10.35;6.70;;;5.30;90.80;;;;;;1940234;74;21044;-47
2021/12/21 03:04:51;;;;;;;10.30;5.87;;;5.30;90.90;;;;;;1940561;73;21016;-47
2021/12/21 03:10:12;;;;;;;8.03;5.22;;;5.30;90.80;;;;;;1953124;73;21027;-47
2021/12/21 03:15:10;;;;;;;12.58;7.53;;;5.30;90.80;;;;;;1925351;73;21026;-46
2021/12/21 03:17:40;;;;;;;13.48;6.85;;;5.30;90.80;;;;;;1953085;73;21085;-47
2021/12/21 03:20:09;;;;;;;11.22;6.58;;;5.30;90.80;;;;;;1952958;73;21011;-47
2021/12/21 03:22:39;;;;;;;9.43;6.78;;;5.30;90.90;;;;;;1952963;73;21031;-47
2021/12/21 03:25:09;;;;;;;8.85;5.40;;;5.40;90.90;;;;;;1953006;73;21008;-48
2021/12/21 03:27:39;;;;;;;6.62;4.80;;;5.40;90.90;;;;;;1953138;73;21012;-46
2021/12/21 03:30:11;;;;;;;10.43;4.90;;;5.30;90.60;;;;;;1953063;73;21003;-46
2021/12/21 03:32:40;;;;;;;9.50;6.42;;;5.30;90.90;;;;;;1953064;73;20988;-46
2021/12/21 03:35:10;;;;;;;6.17;4.58;;;5.20;90.90;;;;;;1953080;73;21105;-48
2021/12/21 03:37:39;;;;;;;13.60;5.78;;;5.20;90.90;;;;;;1953047;73;21004;-47
2021/12/21 03:40:09;;;;;;;10.80;6.33;;;5.20;91.00;;;;;;1953195;73;20999;-47
2021/12/21 03:42:38;;;;;;;11.60;6.33;;;5.20;91.00;;;;;;1953100;73;21069;-47
2021/12/21 03:45:08;;;;;;;9.38;5.85;;;5.30;91.10;;;;;;1953103;73;21018;-47
2021/12/21 03:47:37;;;;;;;10.55;6.92;;;5.20;91.00;;;;;;1952987;73;21040;-48
2021/12/21 03:50:18;;;;;;;8.53;6.28;;;5.20;90.90;;;;;;1953062;73;21090;-46
2021/12/21 03:52:39;;;;;;;10.05;5.75;;;5.20;90.70;;;;;;1950929;73;21024;-46
2021/12/21 03:55:08;;;;;;;8.38;5.47;;;5.10;90.80;;;;;;1953037;73;21087;-47
2021/12/21 03:57:38;;;;;;;10.60;6.37;;;5.00;90.90;;;;;;1952919;73;21019;-48
2021/12/21 04:00:11;;;;;;;11.63;6.10;;;5.00;91.00;;;;;;1953045;73;21124;-47
2021/12/21 04:02:41;;;;;;;7.97;6.05;;;5.00;91.10;;;;;;1953189;73;21039;-47
2021/12/21 04:05:10;;;;;;;7.75;5.55;;;5.00;91.20;;;;;;1952898;73;21012;-47
2021/12/21 04:07:41;;;;;;;44.93;23.35;;;5.00;91.20;;;;;;1952956;73;21048;-47
2021/12/21 04:10:10;;;;;;;13.88;9.55;;;5.00;91.40;;;;;;1952928;73;21062;-49
2021/12/21 04:12:40;;;;;;;12.18;7.95;;;5.10;91.40;;;;;;1952875;73;20996;-47
2021/12/21 04:15:11;;;;;;;12.35;8.50;;;5.10;91.20;;;;;;1952866;73;21101;-47
2021/12/21 04:17:40;;;;;;;10.50;7.12;;;5.10;91.20;;;;;;1953006;73;21078;-48
2021/12/21 04:20:10;;;;;;;13.15;7.75;;;5.10;91.20;;;;;;1953044;73;21102;-48
2021/12/21 04:22:39;;;;;;;10.63;6.75;;;5.20;91.30;;;;;;1953192;73;21016;-47
2021/12/21 04:25:09;;;;;;;15.43;9.98;;;5.20;91.20;;;;;;1953249;73;21062;-47
2021/12/21 04:27:39;;;;;;;10.45;7.95;;;5.20;91.20;;;;;;1953016;73;21020;-47
2021/12/21 04:30:09;;;;;;;15.93;8.18;;;5.20;91.20;;;;;;1953105;73;21062;-47
2021/12/21 04:32:38;;;;;;;9.15;6.08;;;5.20;91.20;;;;;;1953033;73;21007;-48
2021/12/21 04:35:08;;;;;;;11.25;6.83;;;5.20;91.20;;;;;;1953145;73;21024;-48
2021/12/21 04:37:43;;;;;;;8.70;7.08;;;5.20;91.20;;;;;;1953025;73;21027;-47
2021/12/21 04:40:14;;;;;;;10.25;7.40;;;5.20;91.20;;;;;;1952132;73;21052;-47
2021/12/21 04:42:40;;;;;;;11.00;7.83;;;5.20;91.20;;;;;;1952220;73;21539;-49
2021/12/21 04:45:10;;;;;;;11.10;7.83;;;5.20;91.20;;;;;;1953106;73;21024;-48
2021/12/21 04:47:39;;;;;;;18.90;10.70;;;5.20;91.20;;;;;;1952998;73;21081;-47
2021/12/21 04:50:08;;;;;;;29.77;13.35;;;5.20;91.20;;;;;;1953106;73;21000;-47
2021/12/21 04:52:38;;;;;;;20.57;10.10;;;5.20;91.20;;;;;;1953040;73;21024;-47
2021/12/21 04:55:08;;;;;;;15.13;8.38;;;5.10;91.40;;;;;;1953190;73;21067;-46
2021/12/21 04:57:37;;;;;;;14.98;9.35;;;5.10;91.20;;;;;;1953081;73;21032;-47
2021/12/21 05:00:08;;;;;;;19.32;9.33;;;5.10;91.20;;;;;;1953085;73;21089;-47
2021/12/21 05:02:37;;;;;;;42.78;19.65;;;5.10;91.20;;;;;;1952940;73;21024;-49
2021/12/21 05:05:07;;;;;;;29.15;14.23;;;5.10;91.30;;;;;;1952906;73;21015;-46
2021/12/21 05:07:39;;;;;;;29.77;15.48;;;5.10;91.30;;;;;;1944811;73;21041;-46
2021/12/21 05:10:10;;;;;;;33.00;18.12;;;5.00;91.40;;;;;;1940353;74;21110;-47
2021/12/21 05:12:39;;;;;;;27.95;14.75;;;5.00;91.30;;;;;;1940255;74;21130;-46
2021/12/21 05:15:09;;;;;;;21.37;11.78;;;5.00;91.30;;;;;;1940219;74;21094;-47
2021/12/21 05:17:38;;;;;;;15.63;8.85;;;5.00;91.40;;;;;;1940216;74;21102;-46
2021/12/21 05:20:08;;;;;;;15.35;9.05;;;5.00;91.30;;;;;;1940138;73;21005;-46
2021/12/21 05:22:38;;;;;;;13.72;7.85;;;5.00;91.30;;;;;;1940098;74;21000;-47
2021/12/21 05:25:08;;;;;;;11.38;8.13;;;5.00;91.30;;;;;;1940328;74;21074;-47
2021/12/21 05:27:37;;;;;;;25.10;13.20;;;5.00;91.30;;;;;;1939990;74;21024;-47
2021/12/21 05:30:07;;;;;;;12.47;6.97;;;5.00;91.30;;;;;;1940011;74;21008;-51
2021/12/21 05:32:36;;;;;;;11.60;7.28;;;5.00;91.30;;;;;;1940080;74;21454;-47
2021/12/21 05:35:06;;;;;;;16.55;8.48;;;5.00;91.30;;;;;;1940180;74;21078;-48
2021/12/21 05:37:38;;;;;;;16.42;10.65;;;5.00;91.30;;;;;;1940229;74;21458;-48
2021/12/21 05:40:19;;;;;;;13.88;9.38;;;5.00;91.30;;;;;;1940137;74;21033;-50
2021/12/21 05:42:46;;;;;;;31.48;13.98;;;5.00;91.60;;;;;;1938951;74;21044;-50
2021/12/21 05:45:18;;;;;;;20.95;10.65;;;5.00;91.30;;;;;;1940239;74;21025;-51
2021/12/21 05:47:47;;;;;;;14.03;9.00;;;5.00;91.30;;;;;;1940214;74;21044;-49
2021/12/21 05:50:18;;;;;;;11.65;8.45;;;5.00;91.30;;;;;;1940204;74;21020;-51
2021/12/21 05:52:49;;;;;;;13.58;9.38;;;5.00;91.30;;;;;;1940218;74;21081;-48
2021/12/21 05:55:20;;;;;;;12.50;8.40;;;5.00;91.40;;;;;;1940049;74;21089;-50
2021/12/21 05:57:50;;;;;;;13.20;8.38;;;5.00;91.40;;;;;;1940043;74;21020;-46
2021/12/21 06:00:22;;;;;;;14.60;8.85;;;5.00;91.40;;;;;;1940106;74;21025;-46
2021/12/21 06:02:51;;;;;;;19.27;10.88;;;5.00;91.30;;;;;;1940059;74;21552;-49
2021/12/21 06:05:21;;;;;;;15.95;10.93;;;5.00;91.40;;;;;;1940247;74;21071;-49
2021/12/21 06:07:52;;;;;;;14.07;9.30;;;5.00;91.40;;;;;;1946372;73;21056;-47
2021/12/21 06:10:28;;;;;;;25.15;12.78;;;5.00;91.40;;;;;;1953057;73;21453;-48
2021/12/21 06:13:46;;;;;;;18.82;10.90;;;5.00;91.40;;;;;;1951981;73;21040;-47
2021/12/21 06:26:18;;;;;;;17.82;10.93;;;5.20;91.50;;;;;;1953102;73;21105;-48
2021/12/21 06:28:48;;;;;;;15.48;9.23;;;5.20;91.50;;;;;;1953156;73;21103;-48
2021/12/21 06:31:19;;;;;;;13.08;9.75;;;5.20;91.40;;;;;;1953060;73;21085;-47
2021/12/21 06:33:48;;;;;;;13.00;9.98;;;5.20;91.40;;;;;;1953178;73;21022;-48
2021/12/21 06:36:18;;;;;;;23.47;13.35;;;5.30;91.50;;;;;;1953104;73;21023;-48
2021/12/21 06:38:47;;;;;;;14.40;10.35;;;5.30;91.40;;;;;;1953096;73;21024;-47
2021/12/21 06:41:17;;;;;;;17.60;9.48;;;5.30;91.20;;;;;;1953105;73;21016;-48
2021/12/21 14:44:37;;;;;;;10.23;5.12;;;3.80;75.00;;;;;;1924344;74;28021;-42
2021/12/21 14:47:13;;;;;;;5.42;4.03;;;4.10;75.60;;;;;;1884036;76;21058;-41
2021/12/21 14:49:49;;;;;;;3.98;3.55;;;4.00;74.90;;;;;;1883253;76;21112;-41
2021/12/21 14:52:25;;;;;;;12.65;4.53;;;3.90;75.10;;;;;;1878185;76;21092;-41
2021/12/21 14:55:07;;;;;;;9.50;4.58;;;3.80;75.30;;;;;;1884814;76;21112;-41
2021/12/21 14:57:48;;;;;;;7.37;5.17;;;3.70;75.30;;;;;;1885470;76;21155;-42
2021/12/21 15:00:23;;;;;;;5.65;4.33;;;3.70;75.50;;;;;;1885233;76;21468;-42
2021/12/21 15:02:57;;;;;;;8.75;4.50;;;3.60;75.70;;;;;;1885065;76;21058;-41
2021/12/21 15:05:35;;;;;;;6.90;3.37;;;3.50;75.50;;;;;;1885403;76;21092;-42
2021/12/21 15:08:06;;;;;;;6.85;4.35;;;3.40;75.50;;;;;;1885060;76;21382;-42
2021/12/21 15:10:39;;;;;;;6.65;4.70;;;3.40;75.90;;;;;;1885116;76;21100;-42
2021/12/21 15:13:09;;;;;;;7.17;4.55;;;3.40;76.00;;;;;;1885146;76;21022;-41
2021/12/21 15:15:39;;;;;;;7.15;4.65;;;3.30;76.10;;;;;;1885055;76;21084;-41
2021/12/21 15:18:10;;;;;;;9.35;6.03;;;3.30;76.20;;;;;;1885098;76;21030;-41
2021/12/21 15:20:39;;;;;;;14.73;5.15;;;3.30;76.00;;;;;;1885097;76;21034;-41
2021/12/21 15:23:09;;;;;;;8.20;5.22;;;3.30;76.40;;;;;;1885133;76;21014;-41
2021/12/21 15:25:39;;;;;;;9.03;5.45;;;3.30;76.70;;;;;;1885101;76;21022;-41
2021/12/21 15:28:08;;;;;;;6.83;5.00;;;3.30;76.90;;;;;;1885151;76;21030;-41
2021/12/21 15:30:38;;;;;;;9.38;6.28;;;3.30;77.10;;;;;;1885181;76;21038;-41
2021/12/21 15:33:07;;;;;;;15.58;6.53;;;3.30;76.80;;;;;;1884977;76;21084;-42
2021/12/21 15:35:37;;;;;;;13.62;6.30;;;3.30;76.90;;;;;;1885155;76;21030;-42
2021/12/21 15:38:06;;;;;;;16.00;5.42;;;3.40;78.10;;;;;;1885069;76;21092;-41
2021/12/21 15:40:35;;;;;;;20.77;6.65;;;3.40;77.50;;;;;;1885083;76;21002;-42
2021/12/21 15:43:07;;;;;;;17.73;5.92;;;3.40;77.60;;;;;;1887912;75;21133;-41
2021/12/21 15:45:36;;;;;;;8.53;6.70;;;3.50;78.20;;;;;;1858128;77;21047;-41
2021/12/21 15:48:06;;;;;;;12.50;6.75;;;3.60;78.70;;;;;;1858094;77;21087;-41
2021/12/21 15:50:35;;;;;;;8.00;5.80;;;3.70;78.80;;;;;;1858248;77;21506;-42
2021/12/21 15:53:05;;;;;;;11.80;4.90;;;3.80;79.40;;;;;;1858088;77;21033;-43
2021/12/21 15:55:34;;;;;;;8.38;6.30;;;3.80;79.30;;;;;;1858040;76;21033;-41
2021/12/21 15:58:03;;;;;;;8.70;5.72;;;3.90;79.70;;;;;;1858044;76;21025;-42
2021/12/21 16:00:32;;;;;;;10.05;7.33;;;4.00;79.70;;;;;;1858033;76;21033;-43
2021/12/21 16:03:02;;;;;;;11.25;7.80;;;4.10;80.00;;;;;;1857977;76;21080;-41
2021/12/21 16:05:31;;;;;;;9.75;6.10;;;4.10;80.30;;;;;;1858139;76;21096;-41
2021/12/21 16:08:01;;;;;;;18.55;7.70;;;4.10;80.40;;;;;;1858015;76;21029;-41
2021/12/21 16:10:30;;;;;;;14.90;7.20;;;4.10;80.60;;;;;;1858063;77;21005;-42
2021/12/21 16:12:59;;;;;;;10.40;6.58;;;4.10;80.90;;;;;;1858003;77;21083;-41
2021/12/21 16:15:29;;;;;;;7.85;5.17;;;4.20;81.00;;;;;;1858152;76;21033;-41
2021/12/21 16:17:58;;;;;;;10.90;5.65;;;4.20;81.20;;;;;;1857996;77;21087;-42
2021/12/21 16:20:28;;;;;;;14.05;7.28;;;4.20;81.40;;;;;;1858119;76;21025;-41
2021/12/21 16:22:57;;;;;;;11.45;5.00;;;4.20;81.40;;;;;;1857977;76;21065;-42
2021/12/21 16:25:26;;;;;;;9.20;5.42;;;4.20;81.20;;;;;;1858107;77;21033;-42
2021/12/21 16:27:56;;;;;;;10.15;5.08;;;4.10;80.60;;;;;;1858022;76;21049;-42
2021/12/21 16:30:43;;;;;;;15.30;6.15;;;4.00;80.90;;;;;;1858145;76;21095;-41
2021/12/21 16:33:12;;;;;;;10.30;5.20;;;3.90;80.90;;;;;;1857435;77;21116;-41
2021/12/21 16:35:42;;;;;;;8.20;5.90;;;3.80;81.70;;;;;;1857980;76;21056;-42
2021/12/21 16:38:12;;;;;;;8.98;5.40;;;3.80;82.10;;;;;;1858099;76;21084;-42
2021/12/21 16:40:42;;;;;;;9.53;5.33;;;3.90;82.20;;;;;;1858030;77;21150;-41
2021/12/21 16:43:12;;;;;;;8.48;5.25;;;3.90;82.50;;;;;;1858030;76;21069;-42
2021/12/21 16:45:42;;;;;;;6.05;4.50;;;4.00;82.40;;;;;;1814147;79;21078;-41
2021/12/21 16:48:14;;;;;;;5.08;4.08;;;3.90;82.40;;;;;;1848549;78;21088;-42
2021/12/21 16:50:43;;;;;;;6.87;4.42;;;4.00;82.50;;;;;;1848496;78;21159;-41
2021/12/21 16:53:13;;;;;;;7.33;5.60;;;4.00;82.70;;;;;;1848391;78;21029;-41
2021/12/21 16:55:42;;;;;;;11.80;5.90;;;4.00;82.60;;;;;;1848455;78;21432;-41
2021/12/21 16:58:12;;;;;;;11.30;6.25;;;4.00;82.90;;;;;;1848384;78;21024;-41
2021/12/21 17:00:41;;;;;;;7.72;4.87;;;4.00;82.80;;;;;;1848554;78;21056;-42
2021/12/21 17:03:10;;;;;;;7.85;4.75;;;3.90;82.20;;;;;;1848492;78;21108;-41
2021/12/21 17:05:40;;;;;;;12.15;5.35;;;3.80;82.60;;;;;;1848340;78;21115;-41
2021/12/21 17:08:14;;;;;;;9.00;5.35;;;3.70;83.00;;;;;;1848395;78;21029;-41
2021/12/21 17:10:44;;;;;;;8.13;5.97;;;3.70;83.30;;;;;;1847976;76;21058;-41
2021/12/21 17:13:13;;;;;;;7.67;5.50;;;3.70;83.40;;;;;;1848162;78;21104;-41
2021/12/21 17:15:42;;;;;;;6.35;4.35;;;3.70;83.70;;;;;;1848574;78;21142;-41
2021/12/21 17:18:12;;;;;;;8.88;5.72;;;3.80;84.40;;;;;;1848527;78;21105;-41
2021/12/21 17:20:41;;;;;;;7.03;4.95;;;3.80;84.00;;;;;;1848532;76;21076;-43
2021/12/21 17:23:11;;;;;;;7.90;4.80;;;3.80;83.90;;;;;;1848492;76;21034;-41
2021/12/21 17:25:40;;;;;;;6.90;5.60;;;3.90;84.00;;;;;;1848460;76;21038;-42
2021/12/21 17:28:09;;;;;;;7.90;5.35;;;3.90;84.20;;;;;;1848535;78;21127;-42
2021/12/21 17:30:39;;;;;;;7.60;5.10;;;3.90;84.10;;;;;;1848494;78;21030;-42
2021/12/21 17:33:12;;;;;;;7.90;5.80;;;3.90;84.30;;;;;;1848432;78;21029;-41
2021/12/21 17:35:39;;;;;;;15.20;5.75;;;3.90;84.50;;;;;;1848098;78;21006;-43
2021/12/21 17:38:08;;;;;;;12.45;5.67;;;3.90;84.40;;;;;;1848460;77;21115;-41
2021/12/21 17:40:40;;;;;;;7.10;5.60;;;3.90;84.40;;;;;;1848477;78;21083;-41
2021/12/21 17:43:12;;;;;;;8.78;5.50;;;4.00;84.70;;;;;;1848426;78;21033;-43
2021/12/21 17:45:42;;;;;;;8.98;6.50;;;3.90;84.60;;;;;;1866733;75;21132;-41
2021/12/21 17:48:11;;;;;;;13.43;8.13;;;3.90;84.90;;;;;;1872515;77;21031;-41
2021/12/21 17:50:41;;;;;;;10.53;7.20;;;3.90;85.00;;;;;;1872472;77;21094;-43
2021/12/21 17:53:10;;;;;;;20.80;6.97;;;3.90;84.90;;;;;;1872458;77;21031;-41
2021/12/21 17:55:40;;;;;;;16.60;9.33;;;3.90;84.80;;;;;;1872667;75;21039;-42
2021/12/21 17:58:09;;;;;;;14.28;8.33;;;3.90;85.00;;;;;;1872465;77;21085;-41
2021/12/21 18:00:38;;;;;;;10.78;7.25;;;3.80;85.10;;;;;;1872688;77;21055;-41
2021/12/21 18:03:08;;;;;;;15.38;9.90;;;3.90;85.40;;;;;;1872601;76;21027;-41
2021/12/21 18:05:37;;;;;;;10.32;7.50;;;3.90;85.50;;;;;;1872683;77;21085;-41
2021/12/21 18:08:07;;;;;;;10.48;7.90;;;3.90;85.50;;;;;;1872540;75;21089;-41
2021/12/21 18:10:38;;;;;;;12.63;7.83;;;3.90;85.60;;;;;;1872695;77;21031;-41
2021/12/21 18:13:08;;;;;;;9.70;6.58;;;3.90;85.50;;;;;;1872655;77;21027;-42
2021/12/21 18:15:38;;;;;;;11.00;6.33;;;3.80;85.40;;;;;;1872699;77;21019;-42
2021/12/21 18:18:07;;;;;;;12.68;8.65;;;3.80;85.30;;;;;;1872655;77;21093;-43
2021/12/21 18:20:37;;;;;;;17.00;9.50;;;3.80;85.40;;;;;;1872576;76;21007;-41
2021/12/21 18:23:08;;;;;;;12.33;7.85;;;3.80;85.50;;;;;;1872544;75;21007;-41
2021/12/21 18:25:38;;;;;;;12.13;6.90;;;3.80;85.80;;;;;;1872585;77;21085;-41
2021/12/21 18:28:07;;;;;;;12.68;7.83;;;3.80;85.90;;;;;;1872523;76;21025;-42
2021/12/21 18:30:37;;;;;;;6.25;5.25;;;3.80;85.90;;;;;;1872669;77;21022;-42
2021/12/21 18:33:07;;;;;;;8.33;5.58;;;3.70;85.10;;;;;;1872609;77;21105;-41
2021/12/21 18:35:37;;;;;;;9.98;4.25;;;3.70;85.90;;;;;;1872583;77;21035;-41
2021/12/21 18:38:08;;;;;;;15.85;3.37;;;3.70;85.30;;;;;;1872439;76;21015;-41
2021/12/21 18:40:38;;;;;;;6.37;4.17;;;3.60;84.50;;;;;;1872507;76;21118;-42
2021/12/21 18:43:08;;;;;;;6.90;3.40;;;3.50;84.20;;;;;;1872513;77;21054;-43
2021/12/21 18:45:37;;;;;;;4.28;3.25;;;3.40;84.70;;;;;;1882494;76;21058;-41
2021/12/21 18:48:07;;;;;;;7.40;4.05;;;3.40;84.40;;;;;;1893930;76;21030;-41
2021/12/21 18:50:37;;;;;;;6.72;3.33;;;3.30;84.50;;;;;;1893936;75;21125;-41
2021/12/21 18:53:07;;;;;;;3.25;2.42;;;3.20;84.30;;;;;;1893892;76;21030;-41
2021/12/21 18:55:37;;;;;;;6.25;3.55;;;3.20;85.30;;;;;;1894048;75;21107;-41
2021/12/21 18:58:06;;;;;;;5.62;2.75;;;3.20;85.20;;;;;;1894025;76;21076;-41
2021/12/21 19:00:38;;;;;;;4.70;3.00;;;3.20;84.10;;;;;;1893925;76;21022;-41
2021/12/21 19:03:10;;;;;;;6.10;3.15;;;3.20;83.00;;;;;;1894079;76;21014;-41
2021/12/21 19:05:42;;;;;;;5.05;2.40;;;3.20;85.00;;;;;;1893923;76;21062;-42
2021/12/21 19:08:12;;;;;;;3.98;3.05;;;3.20;85.40;;;;;;1893956;75;21026;-42
2021/12/21 19:10:42;;;;;;;3.92;3.08;;;3.20;82.80;;;;;;1894010;75;21022;-42
2021/12/21 19:13:11;;;;;;;3.95;3.27;;;3.20;84.50;;;;;;1893832;76;21154;-41
2021/12/21 19:15:41;;;;;;;5.28;3.83;;;3.20;85.00;;;;;;1893953;75;21046;-41
2021/12/21 19:18:10;;;;;;;9.20;3.37;;;3.20;85.30;;;;;;1893917;75;21022;-41
2021/12/21 19:20:40;;;;;;;9.08;3.60;;;3.30;84.90;;;;;;1894165;76;21014;-42
2021/12/21 19:23:11;;;;;;;5.85;4.12;;;3.30;84.40;;;;;;1894032;76;21022;-41
2021/12/21 19:25:41;;;;;;;7.15;4.33;;;3.30;84.90;;;;;;1894081;76;21484;-43
2021/12/21 19:28:12;;;;;;;6.37;3.40;;;3.30;84.50;;;;;;1894251;75;21104;-41
2021/12/21 19:30:42;;;;;;;3.87;2.92;;;3.30;84.10;;;;;;1894219;76;21002;-42
2021/12/21 19:33:12;;;;;;;5.87;3.67;;;3.20;82.40;;;;;;1894107;74;21061;-42
2021/12/21 19:35:45;;;;;;;3.62;2.50;;;3.10;83.50;;;;;;1894150;76;21050;-41
2021/12/21 19:38:20;;;;;;;3.67;2.83;;;3.10;83.40;;;;;;1894307;74;21058;-42
2021/12/21 19:40:50;;;;;;;3.30;2.50;;;3.10;84.00;;;;;;1894229;76;21092;-41
2021/12/21 19:43:19;;;;;;;2.90;2.60;;;3.10;84.20;;;;;;1894063;75;21006;-41
2021/12/21 19:45:48;;;;;;;5.03;3.83;;;3.10;84.40;;;;;;1888128;74;21054;-42
2021/12/21 19:48:18;;;;;;;8.48;3.55;;;3.10;84.90;;;;;;1872525;77;21027;-41
2021/12/21 19:50:47;;;;;;;4.22;3.83;;;3.20;85.20;;;;;;1872496;75;21027;-41
2021/12/21 19:53:18;;;;;;;3.35;2.47;;;3.30;84.90;;;;;;1872478;77;21030;-41
2021/12/21 19:55:48;;;;;;;3.72;2.25;;;3.30;84.90;;;;;;1872611;77;21101;-42
2021/12/21 19:58:17;;;;;;;4.37;2.87;;;3.30;83.70;;;;;;1860486;76;21081;-41
2021/12/21 20:00:47;;;;;;;5.37;1.98;;;3.30;84.40;;;;;;1872506;77;21019;-43
2021/12/21 20:03:16;;;;;;;3.30;2.45;;;3.30;82.80;;;;;;1872560;77;21023;-41
2021/12/21 20:05:46;;;;;;;5.00;2.90;;;3.20;83.00;;;;;;1872562;75;21031;-41
2021/12/21 20:08:16;;;;;;;3.40;3.10;;;3.20;83.40;;;;;;1872480;77;21030;-41
2021/12/21 20:10:54;;;;;;;6.55;3.30;;;3.10;84.00;;;;;;1872566;76;21047;-41
2021/12/21 20:13:17;;;;;;;2.87;2.25;;;3.10;82.10;;;;;;1871994;76;21102;-41
2021/12/21 20:15:47;;;;;;;4.17;1.95;;;3.00;82.20;;;;;;1872508;75;21039;-41
2021/12/21 20:18:18;;;;;;;4.35;2.98;;;2.90;81.80;;;;;;1872480;76;21109;-41
2021/12/21 20:20:47;;;;;;;5.25;2.40;;;2.80;83.70;;;;;;1872543;76;21096;-41
2021/12/21 20:23:17;;;;;;;4.33;2.58;;;2.80;83.50;;;;;;1872587;77;21002;-42
2021/12/21 20:25:48;;;;;;;5.08;2.52;;;2.80;83.20;;;;;;1872511;77;21092;-41
2021/12/21 20:28:18;;;;;;;5.08;3.40;;;2.80;82.60;;;;;;1872462;77;21515;-42
2021/12/21 20:30:48;;;;;;;4.28;2.85;;;2.70;83.10;;;;;;1872552;76;21047;-41
2021/12/21 20:33:18;;;;;;;3.72;2.77;;;2.70;81.50;;;;;;1872561;77;21092;-41
2021/12/21 20:35:49;;;;;;;8.83;2.92;;;2.60;82.30;;;;;;1872538;77;21031;-42
2021/12/21 20:38:18;;;;;;;5.67;2.80;;;2.60;82.30;;;;;;1872628;77;21097;-41
2021/12/21 20:40:48;;;;;;;7.35;2.80;;;2.60;82.40;;;;;;1872621;75;21007;-41
2021/12/21 20:43:18;;;;;;;3.17;2.37;;;2.60;83.30;;;;;;1872646;77;21043;-41
2021/12/21 20:45:51;;;;;;;4.65;2.72;;;2.60;82.70;;;;;;1872488;77;21128;-41
2021/12/21 20:48:22;;;;;;;7.37;2.80;;;2.60;82.70;;;;;;1884849;75;21464;-41
2021/12/21 20:50:52;;;;;;;3.30;2.30;;;2.60;83.80;;;;;;1884721;76;21030;-42
2021/12/21 20:53:22;;;;;;;2.22;1.75;;;2.60;82.00;;;;;;1884760;76;21022;-41
2021/12/21 20:55:52;;;;;;;1.82;1.62;;;2.60;79.80;;;;;;1884701;75;21027;-41
2021/12/21 20:58:22;;;;;;;3.62;2.62;;;2.50;77.60;;;;;;1884806;75;21018;-41
2021/12/21 21:00:53;;;;;;;3.20;2.52;;;2.40;79.60;;;;;;1884715;76;21092;-41
2021/12/21 21:03:25;;;;;;;3.52;2.92;;;2.20;79.60;;;;;;1884789;76;21031;-41
2021/12/21 21:05:55;;;;;;;4.10;3.42;;;2.10;80.50;;;;;;1884733;75;21453;-41
2021/12/21 21:08:24;;;;;;;1.98;1.77;;;2.10;80.50;;;;;;1884696;76;21026;-41
2021/12/21 21:10:53;;;;;;;1.95;1.80;;;2.00;80.00;;;;;;1884776;75;21128;-41
2021/12/21 21:13:23;;;;;;;3.10;2.77;;;1.90;80.50;;;;;;1884807;76;21143;-41
2021/12/21 21:15:52;;;;;;;1.35;1.25;;;1.90;81.10;;;;;;1884692;76;21112;-41
2021/12/21 21:18:23;;;;;;;3.87;2.75;;;1.80;79.70;;;;;;1884759;76;21110;-41
2021/12/21 21:20:53;;;;;;;4.12;1.95;;;1.80;79.50;;;;;;1884718;76;21089;-41
2021/12/21 21:23:22;;;;;;;1.70;1.60;;;1.80;80.20;;;;;;1884812;76;21026;-41
2021/12/21 21:25:51;;;;;;;2.65;1.87;;;1.70;79.60;;;;;;1884748;76;21092;-41
2021/12/21 21:28:21;;;;;;;2.22;1.65;;;1.70;80.20;;;;;;1884663;75;21042;-42
2021/12/21 21:30:51;;;;;;;2.70;2.12;;;1.60;79.40;;;;;;1884789;76;21030;-42
2021/12/21 21:33:20;;;;;;;3.70;2.22;;;1.60;80.50;;;;;;1884736;76;21100;-41
2021/12/21 21:35:50;;;;;;;2.25;2.05;;;1.60;80.90;;;;;;1884775;75;21092;-41
2021/12/21 21:38:20;;;;;;;1.37;1.27;;;1.50;80.80;;;;;;1884810;76;21046;-41
2021/12/21 21:40:50;;;;;;;3.35;2.10;;;1.50;80.50;;;;;;1884778;75;21003;-40
2021/12/21 21:43:19;;;;;;;4.58;2.15;;;1.50;81.30;;;;;;1884632;76;21030;-41
2021/12/21 21:45:49;;;;;;;1.72;1.62;;;1.40;81.30;;;;;;1884746;76;21022;-41